sensor_id;sensor_type;location;lat;lon;timestamp;P1;durP1;ratioP1;P2;durP2;ratioP2
12770;SDS011;6449;47.666;9.160;2023-07-16T00:13:32;3.17;;;2.00;;
12770;SDS011;6449;47.666;9.160;2023-07-16T00:18:27;2.47;;;2.00;;
12770;SDS011;6449;47.666;9.160;2023-07-16T00:23:21;2.15;;;1.95;;
12770;SDS011;6449;47.666;9.160;2023-07-16T00:28:14;1.92;;;1.73;;
12770;SDS011;6449;47.666;9.160;2023-07-16T00:33:12;3.47;;;1.90;;
12770;SDS011;6449;47.666;9.160;2023-07-16T00:51:12;2.13;;;1.20;;
12770;SDS011;6449;47.666;9.160;2023-07-16T01:48:23;3.55;;;0.95;;
12770;SDS011;6449;47.666;9.160;2023-07-16T01:53:22;1.27;;;1.17;;
12770;SDS011;6449;47.666;9.160;2023-07-16T01:58:16;1.00;;;0.80;;
12770;SDS011;6449;47.666;9.160;2023-07-16T02:03:09;1.17;;;1.08;;
12770;SDS011;6449;47.666;9.160;2023-07-16T02:08:05;1.33;;;1.10;;
12770;SDS011;6449;47.666;9.160;2023-07-16T02:12:58;1.17;;;1.00;;
12770;SDS011;6449;47.666;9.160;2023-07-16T02:17:51;1.05;;;0.85;;
12770;SDS011;6449;47.666;9.160;2023-07-16T02:23:00;1.45;;;1.17;;
12770;SDS011;6449;47.666;9.160;2023-07-16T02:27:55;1.38;;;0.80;;
12770;SDS011;6449;47.666;9.160;2023-07-16T02:32:48;1.10;;;0.90;;
12770;SDS011;6449;47.666;9.160;2023-07-16T02:37:42;1.55;;;1.10;;
12770;SDS011;6449;47.666;9.160;2023-07-16T02:42:35;1.23;;;1.13;;
12770;SDS011;6449;47.666;9.160;2023-07-16T02:47:30;1.48;;;1.10;;
12770;SDS011;6449;47.666;9.160;2023-07-16T02:52:24;1.10;;;1.00;;
12770;SDS011;6449;47.666;9.160;2023-07-16T02:57:17;2.35;;;1.30;;
12770;SDS011;6449;47.666;9.160;2023-07-16T03:02:10;1.00;;;0.95;;
12770;SDS011;6449;47.666;9.160;2023-07-16T03:07:06;1.30;;;0.90;;
12770;SDS011;6449;47.666;9.160;2023-07-16T03:11:59;1.30;;;1.20;;
12770;SDS011;6449;47.666;9.160;2023-07-16T03:16:52;3.08;;;1.38;;
12770;SDS011;6449;47.666;9.160;2023-07-16T03:21:46;1.88;;;1.10;;
12770;SDS011;6449;47.666;9.160;2023-07-16T03:26:42;1.23;;;1.13;;
12770;SDS011;6449;47.666;9.160;2023-07-16T03:31:36;1.38;;;1.20;;
12770;SDS011;6449;47.666;9.160;2023-07-16T03:36:29;1.58;;;1.30;;
12770;SDS011;6449;47.666;9.160;2023-07-16T03:41:23;1.40;;;1.00;;
12770;SDS011;6449;47.666;9.160;2023-07-16T03:46:17;2.38;;;1.15;;
12770;SDS011;6449;47.666;9.160;2023-07-16T03:51:11;1.80;;;1.08;;
12770;SDS011;6449;47.666;9.160;2023-07-16T03:56:04;1.10;;;1.00;;
12770;SDS011;6449;47.666;9.160;2023-07-16T04:00:57;2.47;;;1.38;;
12770;SDS011;6449;47.666;9.160;2023-07-16T04:05:52;2.22;;;1.30;;
12770;SDS011;6449;47.666;9.160;2023-07-16T04:10:55;1.92;;;1.17;;
12770;SDS011;6449;47.666;9.160;2023-07-16T04:15:48;0.98;;;0.90;;
12770;SDS011;6449;47.666;9.160;2023-07-16T04:20:44;1.30;;;1.20;;
12770;SDS011;6449;47.666;9.160;2023-07-16T04:31:46;1.55;;;1.20;;
12770;SDS011;6449;47.666;9.160;2023-07-16T04:36:41;4.55;;;1.20;;
12770;SDS011;6449;47.666;9.160;2023-07-16T04:41:38;1.45;;;1.17;;
12770;SDS011;6449;47.666;9.160;2023-07-16T04:46:31;2.53;;;1.30;;
12770;SDS011;6449;47.666;9.160;2023-07-16T04:51:26;1.65;;;1.33;;
12770;SDS011;6449;47.666;9.160;2023-07-16T04:56:20;1.40;;;1.30;;
12770;SDS011;6449;47.666;9.160;2023-07-16T05:01:13;1.15;;;1.08;;
12770;SDS011;6449;47.666;9.160;2023-07-16T05:06:07;1.52;;;1.42;;
12770;SDS011;6449;47.666;9.160;2023-07-16T05:11:02;1.42;;;1.33;;
12770;SDS011;6449;47.666;9.160;2023-07-16T05:15:55;1.20;;;1.10;;
12770;SDS011;6449;47.666;9.160;2023-07-16T05:20:50;1.38;;;1.15;;
12770;SDS011;6449;47.666;9.160;2023-07-16T05:25:46;1.30;;;1.20;;
12770;SDS011;6449;47.666;9.160;2023-07-16T05:30:42;2.35;;;1.48;;
12770;SDS011;6449;47.666;9.160;2023-07-16T05:35:35;2.05;;;1.40;;
12770;SDS011;6449;47.666;9.160;2023-07-16T05:40:31;2.15;;;1.52;;
12770;SDS011;6449;47.666;9.160;2023-07-16T05:45:25;1.35;;;1.23;;
12770;SDS011;6449;47.666;9.160;2023-07-16T05:50:20;1.10;;;1.00;;
12770;SDS011;6449;47.666;9.160;2023-07-16T06:00:54;2.63;;;1.25;;
12770;SDS011;6449;47.666;9.160;2023-07-16T06:12:20;1.10;;;1.00;;
12770;SDS011;6449;47.666;9.160;2023-07-16T06:17:13;2.22;;;1.35;;
12770;SDS011;6449;47.666;9.160;2023-07-16T06:22:06;4.95;;;1.30;;
12770;SDS011;6449;47.666;9.160;2023-07-16T06:27:00;1.23;;;1.13;;
12770;SDS011;6449;47.666;9.160;2023-07-16T06:31:55;2.03;;;1.20;;
12770;SDS011;6449;47.666;9.160;2023-07-16T06:36:51;2.80;;;1.42;;
12770;SDS011;6449;47.666;9.160;2023-07-16T06:41:44;1.52;;;1.38;;
12770;SDS011;6449;47.666;9.160;2023-07-16T06:46:38;2.05;;;1.33;;
12770;SDS011;6449;47.666;9.160;2023-07-16T06:51:33;1.92;;;1.20;;
12770;SDS011;6449;47.666;9.160;2023-07-16T06:56:26;1.27;;;1.17;;
12770;SDS011;6449;47.666;9.160;2023-07-16T07:01:19;1.25;;;1.15;;
12770;SDS011;6449;47.666;9.160;2023-07-16T07:06:13;1.45;;;1.10;;
12770;SDS011;6449;47.666;9.160;2023-07-16T07:11:08;3.13;;;1.10;;
12770;SDS011;6449;47.666;9.160;2023-07-16T07:16:02;2.10;;;1.00;;
12770;SDS011;6449;47.666;9.160;2023-07-16T07:20:56;1.35;;;0.98;;
12770;SDS011;6449;47.666;9.160;2023-07-16T07:25:49;1.40;;;1.10;;
12770;SDS011;6449;47.666;9.160;2023-07-16T07:30:45;1.15;;;0.95;;
12770;SDS011;6449;47.666;9.160;2023-07-16T07:35:38;1.20;;;1.10;;
12770;SDS011;6449;47.666;9.160;2023-07-16T07:40:32;2.28;;;0.82;;
12770;SDS011;6449;47.666;9.160;2023-07-16T07:45:25;1.35;;;1.23;;
12770;SDS011;6449;47.666;9.160;2023-07-16T07:50:20;2.30;;;1.35;;
12770;SDS011;6449;47.666;9.160;2023-07-16T07:55:13;1.67;;;1.13;;
12770;SDS011;6449;47.666;9.160;2023-07-16T08:00:08;1.67;;;1.20;;
12770;SDS011;6449;47.666;9.160;2023-07-16T08:05:03;1.23;;;1.13;;
12770;SDS011;6449;47.666;9.160;2023-07-16T08:09:59;2.30;;;1.20;;
12770;SDS011;6449;47.666;9.160;2023-07-16T08:14:53;1.88;;;1.48;;
12770;SDS011;6449;47.666;9.160;2023-07-16T08:19:46;1.33;;;1.00;;
12770;SDS011;6449;47.666;9.160;2023-07-16T08:24:40;2.00;;;1.30;;
12770;SDS011;6449;47.666;9.160;2023-07-16T08:29:36;2.65;;;1.30;;
12770;SDS011;6449;47.666;9.160;2023-07-16T08:34:29;4.28;;;1.52;;
12770;SDS011;6449;47.666;9.160;2023-07-16T08:39:23;1.85;;;1.17;;
12770;SDS011;6449;47.666;9.160;2023-07-16T08:44:17;1.33;;;1.13;;
12770;SDS011;6449;47.666;9.160;2023-07-16T08:49:12;1.65;;;1.10;;
12770;SDS011;6449;47.666;9.160;2023-07-16T08:54:05;1.63;;;1.13;;
12770;SDS011;6449;47.666;9.160;2023-07-16T08:58:59;1.83;;;1.30;;
12770;SDS011;6449;47.666;9.160;2023-07-16T09:03:53;1.90;;;1.20;;
12770;SDS011;6449;47.666;9.160;2023-07-16T09:08:48;1.65;;;1.23;;
12770;SDS011;6449;47.666;9.160;2023-07-16T09:13:44;2.95;;;1.50;;
12770;SDS011;6449;47.666;9.160;2023-07-16T09:18:39;2.50;;;1.30;;
12770;SDS011;6449;47.666;9.160;2023-07-16T09:23:33;2.72;;;1.27;;
12770;SDS011;6449;47.666;9.160;2023-07-16T09:28:29;1.58;;;1.13;;
12770;SDS011;6449;47.666;9.160;2023-07-16T09:33:23;4.22;;;1.23;;
12770;SDS011;6449;47.666;9.160;2023-07-16T09:38:19;1.77;;;1.30;;
12770;SDS011;6449;47.666;9.160;2023-07-16T09:43:15;4.60;;;1.13;;
12770;SDS011;6449;47.666;9.160;2023-07-16T09:48:10;1.45;;;1.30;;
12770;SDS011;6449;47.666;9.160;2023-07-16T09:53:04;2.20;;;1.30;;
12770;SDS011;6449;47.666;9.160;2023-07-16T09:57:59;1.33;;;1.23;;
12770;SDS011;6449;47.666;9.160;2023-07-16T10:02:57;2.10;;;1.50;;
12770;SDS011;6449;47.666;9.160;2023-07-16T10:07:52;1.83;;;1.10;;
12770;SDS011;6449;47.666;9.160;2023-07-16T10:12:55;1.33;;;1.20;;
12770;SDS011;6449;47.666;9.160;2023-07-16T10:17:54;2.50;;;1.50;;
12770;SDS011;6449;47.666;9.160;2023-07-16T10:22:49;1.27;;;1.17;;
12770;SDS011;6449;47.666;9.160;2023-07-16T11:00:22;3.60;;;1.20;;
12770;SDS011;6449;47.666;9.160;2023-07-16T11:05:16;2.08;;;1.63;;
12770;SDS011;6449;47.666;9.160;2023-07-16T11:10:10;3.92;;;1.35;;
12770;SDS011;6449;47.666;9.160;2023-07-16T11:15:05;1.40;;;1.30;;
12770;SDS011;6449;47.666;9.160;2023-07-16T11:20:04;1.25;;;1.15;;
12770;SDS011;6449;47.666;9.160;2023-07-16T11:25:11;2.53;;;1.40;;
12770;SDS011;6449;47.666;9.160;2023-07-16T11:30:06;1.50;;;1.35;;
12770;SDS011;6449;47.666;9.160;2023-07-16T11:35:01;1.50;;;1.40;;
12770;SDS011;6449;47.666;9.160;2023-07-16T11:40:00;1.70;;;1.40;;
12770;SDS011;6449;47.666;9.160;2023-07-16T11:44:55;1.67;;;1.58;;
12770;SDS011;6449;47.666;9.160;2023-07-16T11:49:49;2.53;;;1.67;;
12770;SDS011;6449;47.666;9.160;2023-07-16T11:54:45;2.20;;;1.48;;
12770;SDS011;6449;47.666;9.160;2023-07-16T11:59:41;2.60;;;1.60;;
12770;SDS011;6449;47.666;9.160;2023-07-16T12:04:37;1.60;;;1.23;;
12770;SDS011;6449;47.666;9.160;2023-07-16T12:09:31;2.58;;;1.55;;
12770;SDS011;6449;47.666;9.160;2023-07-16T12:14:25;2.45;;;1.50;;
12770;SDS011;6449;47.666;9.160;2023-07-16T12:19:19;2.33;;;1.55;;
12770;SDS011;6449;47.666;9.160;2023-07-16T12:24:12;7.03;;;1.65;;
12770;SDS011;6449;47.666;9.160;2023-07-16T12:29:06;2.40;;;1.33;;
12770;SDS011;6449;47.666;9.160;2023-07-16T12:34:01;1.80;;;1.45;;
12770;SDS011;6449;47.666;9.160;2023-07-16T12:38:55;2.00;;;1.50;;
12770;SDS011;6449;47.666;9.160;2023-07-16T12:43:49;1.70;;;1.60;;
12770;SDS011;6449;47.666;9.160;2023-07-16T12:48:42;3.78;;;1.30;;
12770;SDS011;6449;47.666;9.160;2023-07-16T12:53:37;1.60;;;1.50;;
12770;SDS011;6449;47.666;9.160;2023-07-16T12:58:31;4.90;;;1.50;;
12770;SDS011;6449;47.666;9.160;2023-07-16T13:03:24;2.72;;;1.70;;
12770;SDS011;6449;47.666;9.160;2023-07-16T13:08:17;2.40;;;1.50;;
12770;SDS011;6449;47.666;9.160;2023-07-16T13:13:12;1.30;;;1.20;;
12770;SDS011;6449;47.666;9.160;2023-07-16T13:18:07;1.60;;;1.50;;
12770;SDS011;6449;47.666;9.160;2023-07-16T13:23:02;2.40;;;1.33;;
12770;SDS011;6449;47.666;9.160;2023-07-16T13:27:56;1.67;;;1.40;;
12770;SDS011;6449;47.666;9.160;2023-07-16T13:32:51;2.60;;;1.60;;
12770;SDS011;6449;47.666;9.160;2023-07-16T13:37:47;4.00;;;1.40;;
12770;SDS011;6449;47.666;9.160;2023-07-16T13:42:40;1.60;;;1.23;;
12770;SDS011;6449;47.666;9.160;2023-07-16T13:47:34;1.85;;;1.40;;
12770;SDS011;6449;47.666;9.160;2023-07-16T14:44:42;2.22;;;1.40;;
12770;SDS011;6449;47.666;9.160;2023-07-16T14:49:35;2.33;;;1.38;;
12770;SDS011;6449;47.666;9.160;2023-07-16T14:54:29;4.68;;;1.42;;
12770;SDS011;6449;47.666;9.160;2023-07-16T14:59:25;1.95;;;1.50;;
12770;SDS011;6449;47.666;9.160;2023-07-16T15:04:19;1.50;;;1.40;;
12770;SDS011;6449;47.666;9.160;2023-07-16T15:09:13;2.05;;;1.48;;
12770;SDS011;6449;47.666;9.160;2023-07-16T15:14:06;3.20;;;1.95;;
12770;SDS011;6449;47.666;9.160;2023-07-16T15:19:03;1.60;;;1.40;;
12770;SDS011;6449;47.666;9.160;2023-07-16T15:23:58;1.90;;;1.60;;
12770;SDS011;6449;47.666;9.160;2023-07-16T15:28:52;1.50;;;1.38;;
12770;SDS011;6449;47.666;9.160;2023-07-16T16:00:50;1.70;;;1.50;;
12770;SDS011;6449;47.666;9.160;2023-07-16T16:05:44;4.63;;;1.48;;
12770;SDS011;6449;47.666;9.160;2023-07-16T16:17:10;2.30;;;1.65;;
12770;SDS011;6449;47.666;9.160;2023-07-16T16:48:11;2.25;;;1.67;;
12770;SDS011;6449;47.666;9.160;2023-07-16T16:53:05;1.83;;;1.52;;
12770;SDS011;6449;47.666;9.160;2023-07-16T16:57:58;2.35;;;1.83;;
12770;SDS011;6449;47.666;9.160;2023-07-16T17:02:52;1.77;;;1.50;;
12770;SDS011;6449;47.666;9.160;2023-07-16T17:07:47;1.58;;;1.48;;
12770;SDS011;6449;47.666;9.160;2023-07-16T17:12:41;3.05;;;1.95;;
12770;SDS011;6449;47.666;9.160;2023-07-16T17:17:37;2.95;;;1.92;;
12770;SDS011;6449;47.666;9.160;2023-07-16T17:22:31;2.33;;;1.63;;
12770;SDS011;6449;47.666;9.160;2023-07-16T17:27:26;5.85;;;1.77;;
12770;SDS011;6449;47.666;9.160;2023-07-16T17:32:19;2.33;;;1.83;;
12770;SDS011;6449;47.666;9.160;2023-07-16T17:37:13;3.13;;;2.10;;
12770;SDS011;6449;47.666;9.160;2023-07-16T17:42:10;2.50;;;1.63;;
12770;SDS011;6449;47.666;9.160;2023-07-16T17:47:05;1.80;;;1.70;;
12770;SDS011;6449;47.666;9.160;2023-07-16T17:51:59;2.17;;;1.88;;
12770;SDS011;6449;47.666;9.160;2023-07-16T17:56:52;2.90;;;2.50;;
12770;SDS011;6449;47.666;9.160;2023-07-16T18:01:46;5.90;;;2.20;;
12770;SDS011;6449;47.666;9.160;2023-07-16T18:06:42;4.15;;;2.53;;
12770;SDS011;6449;47.666;9.160;2023-07-16T18:11:38;3.20;;;2.40;;
12770;SDS011;6449;47.666;9.160;2023-07-16T18:16:35;3.67;;;2.20;;
12770;SDS011;6449;47.666;9.160;2023-07-16T18:21:29;5.88;;;2.92;;
12770;SDS011;6449;47.666;9.160;2023-07-16T18:26:29;6.65;;;3.15;;
12770;SDS011;6449;47.666;9.160;2023-07-16T18:31:22;5.47;;;2.50;;
12770;SDS011;6449;47.666;9.160;2023-07-16T18:36:16;5.13;;;3.53;;
12770;SDS011;6449;47.666;9.160;2023-07-16T18:41:09;7.43;;;3.45;;
12770;SDS011;6449;47.666;9.160;2023-07-16T18:46:04;4.32;;;3.10;;
12770;SDS011;6449;47.666;9.160;2023-07-16T18:56:31;4.60;;;3.00;;
12770;SDS011;6449;47.666;9.160;2023-07-16T19:01:26;3.65;;;2.53;;
12770;SDS011;6449;47.666;9.160;2023-07-16T19:19:24;3.60;;;2.75;;
12770;SDS011;6449;47.666;9.160;2023-07-16T19:24:18;2.92;;;2.38;;
12770;SDS011;6449;47.666;9.160;2023-07-16T19:29:14;3.28;;;2.60;;
12770;SDS011;6449;47.666;9.160;2023-07-16T19:34:07;3.42;;;2.90;;
12770;SDS011;6449;47.666;9.160;2023-07-16T19:39:06;4.75;;;3.20;;
12770;SDS011;6449;47.666;9.160;2023-07-16T19:50:31;3.45;;;2.78;;
12770;SDS011;6449;47.666;9.160;2023-07-16T19:55:27;4.07;;;3.10;;
12770;SDS011;6449;47.666;9.160;2023-07-16T20:13:13;4.55;;;2.90;;
12770;SDS011;6449;47.666;9.160;2023-07-16T20:18:10;5.05;;;2.97;;
12770;SDS011;6449;47.666;9.160;2023-07-16T20:23:06;3.92;;;3.05;;
12770;SDS011;6449;47.666;9.160;2023-07-16T20:28:00;4.07;;;2.83;;
12770;SDS011;6449;47.666;9.160;2023-07-16T20:32:59;4.40;;;3.35;;
12770;SDS011;6449;47.666;9.160;2023-07-16T20:37:53;3.83;;;2.47;;
12770;SDS011;6449;47.666;9.160;2023-07-16T20:42:51;4.20;;;2.80;;
12770;SDS011;6449;47.666;9.160;2023-07-16T21:06:59;3.45;;;3.00;;
12770;SDS011;6449;47.666;9.160;2023-07-16T21:24:57;3.55;;;3.25;;
12770;SDS011;6449;47.666;9.160;2023-07-16T21:29:56;3.70;;;2.75;;
12770;SDS011;6449;47.666;9.160;2023-07-16T22:13:39;3.92;;;2.95;;
12770;SDS011;6449;47.666;9.160;2023-07-16T23:11:26;3.95;;;2.72;;
12770;SDS011;6449;47.666;9.160;2023-07-16T23:16:19;2.90;;;2.60;;
12770;SDS011;6449;47.666;9.160;2023-07-16T23:21:13;3.50;;;2.85;;
12770;SDS011;6449;47.666;9.160;2023-07-16T23:26:07;6.00;;;2.70;;
12770;SDS011;6449;47.666;9.160;2023-07-16T23:31:02;4.63;;;3.05;;
12770;SDS011;6449;47.666;9.160;2023-07-16T23:35:55;3.03;;;2.72;;
12770;SDS011;6449;47.666;9.160;2023-07-16T23:40:49;4.70;;;3.70;;
12770;SDS011;6449;47.666;9.160;2023-07-16T23:45:42;4.00;;;2.60;;
12770;SDS011;6449;47.666;9.160;2023-07-16T23:50:37;2.90;;;2.60;;
12770;SDS011;6449;47.666;9.160;2023-07-16T23:55:30;4.80;;;3.33;;
